Time;durP1;ratioP1;P1;durP2;ratioP2;P2;SDS_P1;SDS_P2;PMS_P1;PMS_P2;Temp;Humidity;BMP_temperature;BMP_pressure;BME280_temperature;BME280_humidity;BME280_pressure;Samples;Min_cycle;Max_cycle;Signal;HPM_P1;HPM_P2
2021/05/15 00:01:31;;;;;;;2.70;2.50;;;;;;;22.94;51.33;98856.48;1797113;79;21091;-71
2021/05/15 00:03:57;;;;;;;2.83;2.60;;;;;;;22.93;51.37;98853.52;1747916;80;21029;-73
2021/05/15 00:06:26;;;;;;;3.02;2.72;;;;;;;22.92;51.38;98852.44;1765799;80;21688;-74
2021/05/15 00:08:52;;;;;;;3.42;2.58;;;;;;;22.91;51.39;98852.98;1826380;77;21118;-73
2021/05/15 00:11:18;;;;;;;2.90;2.70;;;;;;;22.90;51.44;98845.93;1834239;77;21488;-72
2021/05/15 00:13:46;;;;;;;2.75;2.55;;;;;;;22.90;51.44;98849.19;1829670;77;21297;-71
2021/05/15 00:16:13;;;;;;;2.67;2.25;;;;;;;22.86;51.48;98842.14;1820852;77;21607;-73
2021/05/15 00:18:41;;;;;;;3.20;2.90;;;;;;;22.87;51.51;98842.42;1835977;77;21195;-74
2021/05/15 00:21:08;;;;;;;2.70;2.50;;;;;;;22.86;51.55;98845.40;1843798;77;21039;-73
2021/05/15 00:23:34;;;;;;;3.42;2.90;;;;;;;22.83;51.60;98846.77;1827301;77;21627;-74
2021/05/15 00:26:01;;;;;;;3.22;2.65;;;;;;;22.83;51.63;98843.22;1831668;77;21051;-73
2021/05/15 00:28:28;;;;;;;3.52;2.42;;;;;;;22.81;51.66;98846.73;1818621;77;21086;-75
2021/05/15 00:30:56;;;;;;;2.60;2.40;;;;;;;22.81;51.68;98851.61;1835465;77;21653;-74
2021/05/15 00:33:22;;;;;;;2.95;2.45;;;;;;;22.79;51.71;98849.71;1837456;77;21062;-73
2021/05/15 00:35:48;;;;;;;2.98;2.67;;;;;;;22.78;51.75;98852.97;1825671;77;21055;-73
2021/05/15 00:38:16;;;;;;;3.12;2.60;;;;;;;22.78;51.74;98850.81;1827856;77;21119;-74
2021/05/15 00:40:42;;;;;;;2.98;2.77;;;;;;;22.76;51.75;98853.78;1798977;78;21036;-72
2021/05/15 00:43:09;;;;;;;3.20;2.80;;;;;;;22.76;51.79;98856.48;1759711;80;21098;-74
2021/05/15 00:45:36;;;;;;;2.80;2.60;;;;;;;22.75;51.79;98858.11;1844125;77;21067;-76
2021/05/15 00:48:04;;;;;;;3.10;2.80;;;;;;;22.75;51.82;98851.34;1834402;77;21023;-76
2021/05/15 00:50:31;;;;;;;3.30;3.00;;;;;;;22.74;51.85;98856.50;1838000;77;21040;-76
2021/05/15 00:52:58;;;;;;;3.52;3.00;;;;;;;22.72;51.87;98847.83;1845008;77;21598;-75
2021/05/15 00:55:24;;;;;;;3.17;2.87;;;;;;;22.71;51.91;98851.61;1838127;77;21067;-76
2021/05/15 00:57:53;;;;;;;2.75;2.55;;;;;;;22.69;51.93;98846.45;1840715;77;21072;-76
2021/05/15 01:00:20;;;;;;;2.95;2.65;;;;;;;22.69;51.97;98849.72;1812717;77;21078;-77
2021/05/15 01:02:47;;;;;;;3.25;2.62;;;;;;;22.67;52.01;98845.92;1853541;77;21031;-75
2021/05/15 01:05:14;;;;;;;4.08;3.20;;;;;;;22.66;52.05;98849.72;1840869;77;22547;-75
2021/05/15 01:07:46;;;;;;;2.90;2.60;;;;;;;22.66;52.04;98850.27;1841222;77;21711;-75
2021/05/15 01:10:13;;;;;;;3.15;2.92;;;;;;;22.65;52.07;98852.69;1827000;77;21147;-76
2021/05/15 01:12:53;;;;;;;4.05;3.05;;;;;;;22.64;52.10;98857.30;1844589;77;21548;-76
2021/05/15 01:15:20;;;;;;;2.87;2.52;;;;;;;22.62;52.11;98852.70;1832487;77;21063;-77
2021/05/15 01:17:51;;;;;;;3.62;3.00;;;;;;;22.61;52.14;98855.12;1847413;77;21484;-77
2021/05/15 01:20:18;;;;;;;3.55;2.58;;;;;;;22.59;52.19;98851.87;1833023;77;21065;-76
2021/05/15 01:22:44;;;;;;;3.22;2.92;;;;;;;22.59;52.23;98855.93;1829801;77;21032;-76
2021/05/15 01:25:12;;;;;;;3.10;2.87;;;;;;;22.57;52.25;98857.55;1824828;77;21052;-76
2021/05/15 01:27:38;;;;;;;2.83;2.40;;;;;;;22.57;52.26;98862.16;1837115;77;21055;-77
2021/05/15 01:30:07;;;;;;;2.90;2.70;;;;;;;22.56;52.29;98862.70;1840975;77;21039;-76
2021/05/15 01:32:36;;;;;;;3.50;3.15;;;;;;;22.56;52.28;98863.22;1793017;78;21070;-76
2021/05/15 01:35:07;;;;;;;3.08;2.87;;;;;;;22.55;52.30;98869.73;1842659;77;21025;-77
2021/05/15 01:37:34;;;;;;;2.65;2.45;;;;;;;22.53;52.34;98871.89;1787728;78;21054;-76
2021/05/15 01:40:06;;;;;;;2.62;2.42;;;;;;;22.51;52.38;98867.30;1807609;78;21105;-76
2021/05/15 01:42:33;;;;;;;3.17;2.87;;;;;;;22.49;52.40;98868.91;1791144;77;21042;-75
2021/05/15 01:45:00;;;;;;;3.10;2.80;;;;;;;22.49;52.47;98864.05;1785634;78;21094;-75
2021/05/15 01:47:27;;;;;;;3.37;3.08;;;;;;;22.47;52.52;98862.14;1813050;78;21031;-77
2021/05/15 01:49:54;;;;;;;4.53;2.92;;;;;;;22.47;52.52;98858.09;1790353;78;21066;-76
2021/05/15 01:52:20;;;;;;;3.20;2.90;;;;;;;22.46;52.52;98854.55;1799010;78;21045;-77
2021/05/15 01:54:47;;;;;;;3.00;2.70;;;;;;;22.45;52.55;98856.99;1796448;78;21078;-77
2021/05/15 01:57:15;;;;;;;3.27;2.98;;;;;;;22.44;52.59;98858.06;1810205;78;21942;-77
2021/05/15 01:59:41;;;;;;;3.37;3.05;;;;;;;22.44;52.60;98862.67;1813371;78;21035;-77
2021/05/15 02:02:08;;;;;;;3.10;2.70;;;;;;;22.43;52.61;98863.77;1794542;78;21015;-77
2021/05/15 02:04:34;;;;;;;3.35;3.05;;;;;;;22.42;52.64;98863.48;1815780;78;21097;-76
2021/05/15 02:07:01;;;;;;;2.90;2.62;;;;;;;22.41;52.66;98869.44;1787668;78;21058;-76
2021/05/15 02:09:28;;;;;;;3.15;2.85;;;;;;;22.40;52.70;98866.44;1807080;78;21136;-76
2021/05/15 02:11:55;;;;;;;3.60;3.30;;;;;;;22.39;52.74;98878.36;1790559;78;21564;-76
2021/05/15 02:14:22;;;;;;;2.95;2.65;;;;;;;22.37;52.77;98865.64;1806530;78;21043;-77
2021/05/15 02:16:48;;;;;;;3.75;3.02;;;;;;;22.36;52.86;98868.06;1785282;78;21128;-76
2021/05/15 02:19:14;;;;;;;3.20;2.90;;;;;;;22.35;52.90;98867.80;1790180;78;21519;-77
2021/05/15 02:21:41;;;;;;;3.15;2.85;;;;;;;22.35;52.96;98872.67;1792801;78;21042;-75
2021/05/15 02:24:08;;;;;;;3.02;2.72;;;;;;;22.34;52.99;98868.88;1814158;78;21654;-76
2021/05/15 02:26:35;;;;;;;3.20;2.90;;;;;;;22.33;53.05;98872.67;1806917;78;21063;-77
2021/05/15 02:29:03;;;;;;;3.22;2.92;;;;;;;22.34;53.10;98875.63;1793262;78;21707;-77
2021/05/15 02:31:30;;;;;;;2.87;2.67;;;;;;;22.33;53.15;98887.55;1800136;78;21631;-77
2021/05/15 02:33:56;;;;;;;3.25;2.95;;;;;;;22.33;53.21;98884.84;1805509;78;21637;-76
2021/05/15 02:36:23;;;;;;;3.47;2.72;;;;;;;22.32;53.24;98887.27;1814517;77;21079;-76
2021/05/15 02:38:50;;;;;;;3.45;3.15;;;;;;;22.32;53.28;98896.19;1796254;79;21070;-75
2021/05/15 02:41:17;;;;;;;3.40;2.75;;;;;;;22.32;53.33;98895.38;1785604;79;21095;-77
2021/05/15 02:43:44;;;;;;;3.30;3.00;;;;;;;22.31;53.38;98893.22;1777133;79;21111;-77
2021/05/15 02:46:11;;;;;;;2.80;2.50;;;;;;;22.31;53.43;98897.28;1770148;80;21139;-76
2021/05/15 02:48:37;;;;;;;3.17;2.72;;;;;;;22.31;53.45;98898.63;1758867;80;21146;-77
2021/05/15 02:51:04;;;;;;;2.80;2.60;;;;;;;22.31;53.54;98904.56;1795661;79;21096;-76
2021/05/15 02:53:32;;;;;;;3.33;3.02;;;;;;;22.30;53.55;98909.16;1794972;79;21634;-77
2021/05/15 02:56:00;;;;;;;3.00;2.70;;;;;;;22.30;53.58;98915.12;1785758;79;21585;-76
2021/05/15 02:58:27;;;;;;;3.67;2.77;;;;;;;22.31;53.63;98918.09;1781010;79;21524;-75
2021/05/15 03:00:53;;;;;;;3.55;2.75;;;;;;;22.30;53.64;98919.19;1797873;79;21076;-76
2021/05/15 03:03:20;;;;;;;2.70;2.50;;;;;;;22.30;53.69;98921.89;1744949;80;21552;-75
2021/05/15 03:05:47;;;;;;;3.12;2.83;;;;;;;22.30;53.70;98917.28;1768968;79;21080;-76
2021/05/15 03:08:13;;;;;;;2.83;2.62;;;;;;;22.30;53.72;98926.75;1785199;80;21031;-76
2021/05/15 03:10:39;;;;;;;2.70;2.50;;;;;;;22.31;53.74;98924.34;1777758;79;21071;-76
2021/05/15 03:13:06;;;;;;;3.00;2.70;;;;;;;22.31;53.73;98927.05;1781502;80;21083;-77
2021/05/15 03:15:32;;;;;;;2.90;2.58;;;;;;;22.32;53.73;98932.71;1760236;80;21586;-76
2021/05/15 03:17:59;;;;;;;2.87;2.67;;;;;;;22.33;53.74;98931.64;1777272;79;21052;-76
2021/05/15 03:20:25;;;;;;;2.72;2.52;;;;;;;22.33;53.74;98931.64;1777038;79;21036;-76
2021/05/15 03:22:52;;;;;;;2.80;2.60;;;;;;;22.33;53.75;98928.13;1766099;80;21128;-75
2021/05/15 03:25:21;;;;;;;2.75;2.55;;;;;;;22.34;53.76;98932.45;1815558;77;21143;-76
2021/05/15 03:27:47;;;;;;;3.05;2.85;;;;;;;22.34;53.80;98933.80;1805839;77;21021;-76
2021/05/15 03:30:16;;;;;;;3.45;2.80;;;;;;;22.34;53.80;98933.26;1828136;77;21079;-75
2021/05/15 03:32:42;;;;;;;2.65;2.45;;;;;;;22.35;53.81;98929.48;1830855;77;21015;-75
2021/05/15 03:35:11;;;;;;;3.12;2.58;;;;;;;22.36;53.84;98931.64;1820148;77;21074;-76
2021/05/15 03:37:39;;;;;;;2.77;2.58;;;;;;;22.35;53.83;98934.90;1771351;79;21070;-77
2021/05/15 03:40:07;;;;;;;3.77;2.98;;;;;;;22.37;53.85;98933.28;1772337;79;21072;-76
2021/05/15 03:42:34;;;;;;;3.50;2.65;;;;;;;22.37;53.88;98941.41;1754872;80;21059;-76
2021/05/15 03:45:01;;;;;;;3.02;2.75;;;;;;;22.37;53.86;98948.17;1769435;79;21055;-77
2021/05/15 03:47:27;;;;;;;2.98;2.70;;;;;;;22.39;53.88;98948.72;1788416;79;21843;-77
2021/05/15 03:49:54;;;;;;;2.85;2.65;;;;;;;22.41;53.88;98948.42;1820147;77;21101;-76
2021/05/15 03:52:20;;;;;;;2.52;2.33;;;;;;;22.40;53.89;98952.23;1835182;77;21056;-76
2021/05/15 03:54:46;;;;;;;2.65;2.45;;;;;;;22.41;53.89;98953.84;1775985;80;21080;-76
2021/05/15 03:57:13;;;;;;;3.42;3.12;;;;;;;22.41;53.92;98958.73;1775968;79;21117;-75
2021/05/15 03:59:40;;;;;;;2.70;2.50;;;;;;;22.41;53.90;98962.80;1759150;80;21064;-75
2021/05/15 04:02:07;;;;;;;2.77;2.55;;;;;;;22.41;53.92;98958.73;1737659;79;21587;-76
2021/05/15 04:04:36;;;;;;;3.00;2.70;;;;;;;22.42;53.93;98958.99;1775673;80;21071;-77
2021/05/15 04:07:02;;;;;;;2.60;2.40;;;;;;;22.42;53.91;98963.59;1819619;77;21094;-76
2021/05/15 04:09:29;;;;;;;2.85;2.30;;;;;;;22.43;53.93;98961.18;1814273;77;21023;-75
2021/05/15 04:11:55;;;;;;;2.60;2.40;;;;;;;22.42;53.95;98971.17;1812625;77;21625;-75
2021/05/15 04:14:28;;;;;;;3.25;2.30;;;;;;;22.42;53.95;98968.46;1802833;77;21060;-75
2021/05/15 04:17:15;;;;;;;2.87;2.67;;;;;;;22.44;53.98;98969.02;1821887;77;21010;-76
2021/05/15 04:19:30;;;;;;;2.87;2.60;;;;;;;22.43;53.99;98966.59;1801135;77;21103;-75
2021/05/15 04:21:56;;;;;;;3.35;2.47;;;;;;;22.42;54.00;98967.11;1823938;77;21067;-75
2021/05/15 04:24:25;;;;;;;2.77;2.55;;;;;;;22.43;54.04;98972.81;1798901;78;21062;-75
2021/05/15 04:26:54;;;;;;;3.02;2.35;;;;;;;22.43;54.05;98971.45;1825137;77;21078;-75
2021/05/15 04:29:21;;;;;;;2.60;2.40;;;;;;;22.43;54.04;98971.45;1817279;77;21058;-75
2021/05/15 04:31:49;;;;;;;2.62;2.35;;;;;;;22.44;54.07;98968.20;1819369;77;21051;-76
2021/05/15 04:34:16;;;;;;;3.02;2.60;;;;;;;22.44;54.07;98973.07;1779823;79;21097;-75
2021/05/15 04:36:42;;;;;;;2.65;2.45;;;;;;;22.45;54.09;98972.00;1832457;77;21055;-75
2021/05/15 04:39:08;;;;;;;2.80;2.60;;;;;;;22.46;54.08;98974.16;1824035;77;21103;-76
2021/05/15 04:41:35;;;;;;;3.00;2.55;;;;;;;22.46;54.08;98968.20;1825868;77;21007;-75
2021/05/15 04:44:02;;;;;;;2.52;2.33;;;;;;;22.48;54.11;98976.06;1823445;77;21086;-74
2021/05/15 04:46:30;;;;;;;2.70;2.50;;;;;;;22.48;54.10;98975.52;1813466;77;21040;-75
2021/05/15 04:48:56;;;;;;;2.87;2.60;;;;;;;22.48;54.08;98982.28;1817159;77;21713;-75
2021/05/15 04:51:23;;;;;;;2.40;2.20;;;;;;;22.49;54.09;98983.12;1828008;77;21095;-76
2021/05/15 04:53:49;;;;;;;3.22;2.65;;;;;;;22.49;54.08;98986.63;1824168;77;21071;-75
2021/05/15 04:56:16;;;;;;;2.33;2.12;;;;;;;22.50;54.08;98987.44;1810311;77;21563;-75
2021/05/15 04:58:42;;;;;;;2.62;2.15;;;;;;;22.49;54.08;98989.34;1841547;77;21539;-76
2021/05/15 05:01:09;;;;;;;2.77;2.58;;;;;;;22.49;54.09;98989.34;1827503;77;21047;-77
2021/05/15 05:03:35;;;;;;;2.65;2.25;;;;;;;22.50;54.07;98992.84;1834653;77;21087;-77
2021/05/15 05:06:02;;;;;;;2.60;2.40;;;;;;;22.51;54.11;98991.23;1829160;77;20992;-71
2021/05/15 05:08:29;;;;;;;2.55;2.35;;;;;;;22.51;54.11;98988.53;1812821;77;21546;-71
2021/05/15 05:10:56;;;;;;;2.70;2.25;;;;;;;22.52;54.08;98991.53;1837457;77;21024;-71
2021/05/15 05:13:24;;;;;;;2.62;2.42;;;;;;;22.53;54.13;98992.33;1834188;77;22560;-72
2021/05/15 05:15:50;;;;;;;2.20;2.00;;;;;;;22.54;54.15;99002.06;1825411;77;21103;-73
2021/05/15 05:18:17;;;;;;;2.35;2.15;;;;;;;22.55;54.17;99001.80;1779609;79;21084;-73
2021/05/15 05:20:43;;;;;;;2.05;1.85;;;;;;;22.55;54.17;99005.86;1742613;80;21096;-72
2021/05/15 05:23:11;;;;;;;2.15;1.95;;;;;;;22.57;54.17;99008.31;1772350;79;21099;-70
2021/05/15 05:25:37;;;;;;;2.33;2.12;;;;;;;22.57;54.20;99007.77;1753395;80;21446;-71
2021/05/15 05:28:04;;;;;;;2.30;2.10;;;;;;;22.58;54.22;99012.11;1800863;79;21610;-70
2021/05/15 05:30:32;;;;;;;2.67;2.17;;;;;;;22.60;54.20;99013.20;1781025;79;21066;-69
2021/05/15 05:32:59;;;;;;;2.30;2.12;;;;;;;22.62;54.25;99011.56;1772839;79;21115;-73
2021/05/15 05:35:25;;;;;;;2.45;2.25;;;;;;;22.63;54.28;99012.66;1819791;77;21035;-72
2021/05/15 05:37:52;;;;;;;2.10;1.90;;;;;;;22.66;54.29;99011.34;1823410;77;21072;-75
2021/05/15 05:40:20;;;;;;;2.50;2.30;;;;;;;22.66;54.33;99012.69;1807102;77;21019;-76
2021/05/15 05:42:46;;;;;;;2.55;2.35;;;;;;;22.68;54.32;99015.40;1829332;77;21059;-75
2021/05/15 05:45:17;;;;;;;2.52;2.33;;;;;;;22.71;54.37;99016.75;1773847;80;21098;-76
2021/05/15 05:47:43;;;;;;;2.60;2.30;;;;;;;22.74;54.37;99022.45;1804663;77;21557;-77
2021/05/15 05:50:10;;;;;;;3.10;2.25;;;;;;;22.76;54.36;99024.35;1819293;78;21092;-76
2021/05/15 05:52:38;;;;;;;2.37;2.17;;;;;;;22.78;54.38;99025.45;1810008;77;21105;-75
2021/05/15 05:55:06;;;;;;;2.62;2.42;;;;;;;22.82;54.33;99030.60;1779163;79;21557;-75
2021/05/15 05:57:35;;;;;;;2.10;2.00;;;;;;;22.86;54.36;99028.17;1779377;80;21396;-75
2021/05/15 06:00:05;;;;;;;9.43;2.35;;;;;;;22.90;54.32;99031.98;1748609;82;21062;-71
2021/05/15 06:02:32;;;;;;;4.53;2.60;;;;;;;22.93;54.61;99030.11;1748877;81;21578;-71
2021/05/15 06:04:58;;;;;;;3.08;2.62;;;;;;;22.96;54.97;99029.55;1749845;80;21084;-70
2021/05/15 06:07:26;;;;;;;4.95;2.80;;;;;;;22.99;55.09;99026.33;1761087;80;21088;-70
2021/05/15 06:09:52;;;;;;;3.83;2.52;;;;;;;23.04;55.06;99035.02;1755751;80;21136;-71
2021/05/15 06:12:18;;;;;;;3.05;2.77;;;;;;;23.07;55.04;99038.56;1754550;80;21092;-71
2021/05/15 06:14:45;;;;;;;3.10;2.40;;;;;;;23.10;55.05;99040.20;1748385;80;21098;-71
2021/05/15 06:17:12;;;;;;;3.65;2.67;;;;;;;23.13;54.91;99040.20;1738697;80;21077;-75
2021/05/15 06:19:38;;;;;;;2.90;2.30;;;;;;;23.17;54.88;99041.28;1759937;80;21654;-71
2021/05/15 06:22:04;;;;;;;3.77;2.67;;;;;;;23.19;54.89;99039.67;1751563;80;21136;-71
2021/05/15 06:24:31;;;;;;;2.90;2.42;;;;;;;23.22;54.80;99040.47;1758446;80;21046;-75
2021/05/15 06:27:01;;;;;;;2.70;2.37;;;;;;;23.24;54.81;99051.33;1776386;80;21083;-74
2021/05/15 06:29:26;;;;;;;4.28;2.37;;;;;;;23.27;54.82;99041.84;1726784;82;21086;-58
2021/05/15 06:31:53;;;;;;;3.05;2.33;;;;;;;23.29;54.78;99043.19;1732680;80;21048;-59
2021/05/15 06:34:19;;;;;;;2.95;2.62;;;;;;;23.31;54.79;99039.70;1773225;79;21209;-71
2021/05/15 06:36:46;;;;;;;2.62;2.42;;;;;;;23.35;54.80;99048.91;1785805;79;21043;-72
2021/05/15 06:39:13;;;;;;;2.70;2.30;;;;;;;23.39;54.77;99047.81;1801236;79;21595;-71
2021/05/15 06:41:39;;;;;;;2.77;2.52;;;;;;;23.43;54.71;99049.44;1794391;79;21102;-70
2021/05/15 06:44:06;;;;;;;2.72;2.37;;;;;;;23.46;54.72;99048.36;1766015;80;21025;-71
2021/05/15 06:46:32;;;;;;;2.27;1.95;;;;;;;23.51;54.66;99058.42;1790647;79;21289;-73
2021/05/15 06:48:59;;;;;;;2.83;2.40;;;;;;;23.53;54.64;99058.41;1803530;79;21039;-72
2021/05/15 06:51:26;;;;;;;3.22;2.80;;;;;;;23.57;54.67;99057.88;1803098;79;21687;-72
2021/05/15 06:53:53;;;;;;;2.58;2.20;;;;;;;23.60;54.67;99056.77;1805858;79;21087;-71
2021/05/15 06:56:19;;;;;;;4.58;2.35;;;;;;;23.63;54.63;99058.95;1783835;79;21539;-71
2021/05/15 06:58:46;;;;;;;2.98;2.42;;;;;;;23.68;54.72;99063.55;1803406;79;21060;-71
2021/05/15 07:01:13;;;;;;;2.40;2.20;;;;;;;23.72;54.75;99064.11;1793023;79;21036;-70
2021/05/15 07:03:39;;;;;;;2.50;2.30;;;;;;;23.78;54.75;99064.09;1803012;79;21072;-70
2021/05/15 07:06:11;;;;;;;2.40;2.20;;;;;;;23.81;54.66;99060.88;1800557;79;21045;-72
2021/05/15 07:08:41;;;;;;;2.85;2.20;;;;;;;23.84;54.66;99072.00;1796631;79;21270;-72
2021/05/15 07:11:07;;;;;;;3.62;2.10;;;;;;;23.88;54.65;99068.21;1797835;79;21195;-70
2021/05/15 07:13:35;;;;;;;3.25;2.30;;;;;;;23.91;54.64;99069.00;1785930;79;21143;-71
2021/05/15 07:16:04;;;;;;;2.33;2.12;;;;;;;23.96;54.52;99072.27;1799169;79;21077;-72
2021/05/15 07:18:31;;;;;;;3.12;2.33;;;;;;;24.00;54.55;99065.22;1791503;79;21071;-71
2021/05/15 07:20:58;;;;;;;2.72;2.30;;;;;;;24.05;54.52;99068.73;1787750;79;21035;-68
2021/05/15 07:23:25;;;;;;;2.17;1.98;;;;;;;24.08;54.54;99074.95;1796414;79;21638;-71
2021/05/15 07:25:51;;;;;;;2.42;2.22;;;;;;;24.13;54.40;99073.60;1803206;79;21028;-68
2021/05/15 07:28:18;;;;;;;2.50;2.05;;;;;;;24.19;54.49;99084.45;1793071;79;21118;-69
2021/05/15 07:30:44;;;;;;;2.30;2.10;;;;;;;24.23;54.36;99090.96;1792295;79;21576;-69
2021/05/15 07:33:12;;;;;;;3.67;2.30;;;;;;;24.26;54.35;99089.88;1767400;79;21537;-69
2021/05/15 07:35:39;;;;;;;2.50;2.20;;;;;;;24.29;54.33;99085.23;1795971;79;21135;-68
2021/05/15 07:38:06;;;;;;;2.58;2.20;;;;;;;24.31;54.31;99099.34;1791173;79;21091;-67
2021/05/15 07:40:34;;;;;;;2.20;2.00;;;;;;;24.35;54.32;99088.76;1847024;77;21090;-70
2021/05/15 07:43:04;;;;;;;2.10;1.90;;;;;;;24.38;54.31;99097.72;1832247;77;21095;-71
2021/05/15 07:45:30;;;;;;;2.17;1.98;;;;;;;24.41;54.24;99087.66;1804632;79;21120;-70
2021/05/15 07:47:57;;;;;;;2.08;1.80;;;;;;;24.43;54.29;99103.12;1847855;77;21642;-66
2021/05/15 07:50:24;;;;;;;2.60;2.15;;;;;;;24.46;54.27;99103.13;1804475;78;21097;-68
2021/05/15 07:52:50;;;;;;;2.42;2.22;;;;;;;24.49;54.17;99088.98;1840099;77;21055;-66
2021/05/15 07:55:17;;;;;;;2.40;2.20;;;;;;;24.52;54.15;99095.27;1806693;79;21539;-67
2021/05/15 07:57:44;;;;;;;2.20;2.00;;;;;;;24.54;54.08;99086.30;1811615;78;21035;-67
2021/05/15 08:00:14;;;;;;;2.35;2.12;;;;;;;24.57;54.14;99091.72;1848579;77;21043;-68
2021/05/15 08:02:42;;;;;;;3.30;2.20;;;;;;;24.58;54.06;99087.37;1805696;78;21060;-69
2021/05/15 08:05:13;;;;;;;2.40;2.20;;;;;;;24.61;54.01;99080.56;1772167;80;21139;-68
2021/05/15 08:07:45;;;;;;;1.80;1.70;;;;;;;24.63;53.94;99087.36;1849005;77;21078;-73
2021/05/15 08:10:12;;;;;;;2.20;1.92;;;;;;;24.65;54.08;99087.90;1796975;78;21063;-72
2021/05/15 08:12:38;;;;;;;3.12;2.37;;;;;;;24.68;54.12;99090.05;1770840;80;21151;-73
2021/05/15 08:15:06;;;;;;;3.95;2.22;;;;;;;24.71;53.88;99086.78;1763496;79;21064;-72
2021/05/15 08:17:34;;;;;;;2.67;2.47;;;;;;;24.74;53.89;99094.91;1792284;78;21672;-74
2021/05/15 08:20:02;;;;;;;3.12;2.40;;;;;;;24.78;53.79;99091.10;1766464;78;21075;-72
2021/05/15 08:22:29;;;;;;;3.25;2.50;;;;;;;24.82;53.80;99093.53;1837545;77;21360;-73
2021/05/15 08:24:57;;;;;;;3.08;2.35;;;;;;;24.85;53.70;99095.14;1849325;77;21598;-74
2021/05/15 08:27:24;;;;;;;3.42;2.40;;;;;;;24.90;53.65;99095.13;1794500;78;21099;-72
2021/05/15 08:29:52;;;;;;;3.85;2.52;;;;;;;24.94;53.53;99088.60;1771425;80;22137;-72
2021/05/15 08:32:19;;;;;;;4.85;2.20;;;;;;;24.97;53.57;99083.95;1755847;79;21040;-73
2021/05/15 08:34:47;;;;;;;4.08;2.50;;;;;;;25.02;53.52;99085.84;1766039;79;21035;-73
2021/05/15 08:37:14;;;;;;;2.58;2.35;;;;;;;25.04;53.52;99089.91;1744910;80;21151;-73
2021/05/15 08:39:40;;;;;;;3.37;2.40;;;;;;;25.07;53.47;99091.23;1753254;79;21048;-72
2021/05/15 08:42:07;;;;;;;3.72;2.20;;;;;;;25.09;53.35;99089.89;1754902;79;21816;-73
2021/05/15 08:44:37;;;;;;;2.45;2.10;;;;;;;25.12;53.33;99096.66;1773468;80;21048;-73
2021/05/15 08:47:05;;;;;;;3.22;2.12;;;;;;;25.15;53.34;99098.83;1752591;80;21077;-73
2021/05/15 08:49:31;;;;;;;2.55;2.35;;;;;;;25.17;53.27;99087.13;1766644;79;22198;-73
2021/05/15 08:51:57;;;;;;;3.37;2.47;;;;;;;25.21;53.19;99079.23;1758500;80;21099;-72
2021/05/15 08:54:24;;;;;;;4.42;2.10;;;;;;;25.25;53.18;99087.12;1759655;79;21115;-75
2021/05/15 08:56:51;;;;;;;2.77;2.33;;;;;;;25.27;53.17;99087.09;1759824;80;21083;-72
2021/05/15 08:59:18;;;;;;;2.30;2.10;;;;;;;25.30;53.13;99090.62;1779536;80;21088;-72
2021/05/15 09:01:45;;;;;;;2.33;2.00;;;;;;;25.34;53.12;99087.32;1846906;77;21049;-73
2021/05/15 09:04:12;;;;;;;2.90;2.15;;;;;;;25.38;53.05;99090.58;1846818;77;21023;-73
2021/05/15 09:06:42;;;;;;;2.52;2.25;;;;;;;25.40;53.07;99088.91;1810120;77;21048;-72
2021/05/15 09:09:08;;;;;;;2.83;2.30;;;;;;;25.42;52.99;99085.36;1829546;77;21056;-73
2021/05/15 09:11:37;;;;;;;3.25;2.50;;;;;;;25.45;53.09;99095.69;1846770;77;20996;-73
2021/05/15 09:14:03;;;;;;;2.70;2.27;;;;;;;25.47;52.97;99091.58;1847159;77;21352;-72
2021/05/15 09:16:30;;;;;;;3.30;2.20;;;;;;;25.50;52.96;99091.58;1823471;77;21602;-73
2021/05/15 09:19:06;;;;;;;2.83;2.00;;;;;;;25.53;52.93;99091.00;1836366;77;21090;-73
2021/05/15 09:21:34;;;;;;;2.50;2.30;;;;;;;25.57;52.89;99089.89;1836622;77;21527;-73
2021/05/15 09:24:05;;;;;;;3.08;2.37;;;;;;;25.60;52.85;99092.05;1846903;77;21016;-73
2021/05/15 09:26:29;;;;;;;2.52;2.20;;;;;;;25.62;52.85;99093.38;1823532;77;21059;-72
2021/05/15 09:28:57;;;;;;;3.10;2.22;;;;;;;25.63;52.84;99097.74;1777074;79;21032;-72
2021/05/15 09:31:35;;;;;;;2.20;2.00;;;;;;;25.66;52.81;99095.80;1759290;80;21116;-73
2021/05/15 09:34:06;;;;;;;3.02;2.00;;;;;;;25.68;52.80;99094.97;1747889;79;21745;-73
2021/05/15 09:36:40;;;;;;;3.10;2.35;;;;;;;25.67;52.78;99098.80;1775025;79;22237;-72
2021/05/15 09:39:19;;;;;;;2.15;1.85;;;;;;;25.68;52.79;99105.84;1774892;80;21075;-73
2021/05/15 09:41:59;;;;;;;2.00;1.80;;;;;;;25.67;52.56;99104.23;1774417;80;21591;-72
2021/05/15 09:44:33;;;;;;;2.72;2.37;;;;;;;25.67;52.51;99111.56;1774961;79;21625;-72
2021/05/15 09:46:59;;;;;;;1.90;1.77;;;;;;;25.67;52.48;99117.00;1774875;79;21017;-74
2021/05/15 09:49:31;;;;;;;2.90;2.17;;;;;;;25.67;52.43;99117.00;1774897;79;21579;-73
2021/05/15 09:52:01;;;;;;;2.10;1.90;;;;;;;25.69;52.49;99117.00;1775029;80;21658;-72
2021/05/15 09:54:30;;;;;;;2.83;2.05;;;;;;;25.73;52.51;99113.70;1774917;79;21075;-73
2021/05/15 09:57:11;;;;;;;2.92;2.10;;;;;;;25.75;52.58;99117.78;1774945;80;21715;-73
2021/05/15 09:59:44;;;;;;;2.30;2.00;;;;;;;25.79;52.63;99118.03;1774678;80;21583;-73
2021/05/15 10:02:14;;;;;;;2.08;1.87;;;;;;;25.81;52.58;99114.48;1774453;80;21567;-72
2021/05/15 10:04:48;;;;;;;2.22;1.80;;;;;;;25.81;52.67;99130.80;1774423;80;21559;-73
2021/05/15 10:07:32;;;;;;;2.40;1.80;;;;;;;25.80;52.56;99139.48;1774894;80;21028;-74
2021/05/15 10:09:52;;;;;;;2.00;1.80;;;;;;;25.80;52.50;99149.01;1749539;79;21085;-75
2021/05/15 10:12:19;;;;;;;2.10;1.77;;;;;;;25.79;52.48;99141.96;1770658;80;22312;-74
2021/05/15 10:14:46;;;;;;;2.25;1.80;;;;;;;25.78;52.38;99136.23;1791023;80;21041;-73
2021/05/15 10:17:13;;;;;;;2.58;2.00;;;;;;;25.78;52.38;99135.44;1790896;80;21583;-73
2021/05/15 10:19:41;;;;;;;2.70;2.00;;;;;;;25.77;52.37;99137.35;1771390;79;21027;-73
2021/05/15 10:22:07;;;;;;;2.35;2.12;;;;;;;25.77;52.34;99142.80;1781620;80;21086;-74
2021/05/15 10:24:35;;;;;;;2.25;2.05;;;;;;;25.76;52.36;99138.98;1759548;80;21475;-73
2021/05/15 10:27:10;;;;;;;1.82;1.67;;;;;;;25.76;52.38;99134.91;1759605;80;21022;-74
2021/05/15 10:29:48;;;;;;;2.40;1.90;;;;;;;25.79;52.59;99135.16;1759716;80;21058;-73
2021/05/15 10:32:21;;;;;;;1.92;1.75;;;;;;;25.83;52.60;99136.77;1787603;80;21033;-73
2021/05/15 10:35:04;;;;;;;2.17;1.80;;;;;;;25.86;52.55;99145.18;1790914;80;21067;-73
2021/05/15 10:37:39;;;;;;;1.75;1.65;;;;;;;25.90;52.49;99145.40;1790631;79;21125;-73
2021/05/15 10:40:18;;;;;;;2.02;1.80;;;;;;;25.96;52.39;99148.40;1791119;79;21061;-74
2021/05/15 10:42:47;;;;;;;1.95;1.80;;;;;;;26.02;52.40;99150.50;1731768;79;21058;-72
2021/05/15 10:45:14;;;;;;;2.27;1.98;;;;;;;26.08;52.42;99143.39;1758179;80;21062;-72
2021/05/15 10:47:41;;;;;;;1.95;1.80;;;;;;;26.17;52.41;99135.96;1781619;80;21074;-73
2021/05/15 10:50:19;;;;;;;2.10;1.95;;;;;;;26.21;52.43;99132.92;1759409;80;21053;-74
2021/05/15 10:53:41;;;;;;;1.87;1.72;;;;;;;26.35;52.29;99138.51;1888435;75;22535;-73
2021/05/15 10:56:17;;;;;;;1.70;1.60;;;;;;;26.30;52.21;99136.66;1853492;77;21047;-73
2021/05/15 10:58:49;;;;;;;1.77;1.67;;;;;;;26.32;52.14;99139.91;1859022;77;21096;-73
2021/05/15 11:01:23;;;;;;;1.98;1.80;;;;;;;26.32;52.13;99131.73;1861512;75;21098;-73
2021/05/15 11:03:50;;;;;;;1.85;1.72;;;;;;;26.32;52.18;99134.46;1859130;76;21037;-73
2021/05/15 11:06:25;;;;;;;1.92;1.82;;;;;;;26.32;52.25;99159.52;1859213;77;21632;-71
2021/05/15 11:09:06;;;;;;;1.77;1.67;;;;;;;26.30;52.26;99172.05;1859316;75;20961;-73
2021/05/15 11:11:40;;;;;;;1.70;1.60;;;;;;;26.28;52.29;99178.34;1861935;75;21080;-72
2021/05/15 11:14:34;;;;;;;1.67;1.50;;;;;;;26.24;52.34;99178.09;1857684;75;21041;-73
2021/05/15 11:17:11;;;;;;;3.33;1.62;;;;;;;26.20;52.24;99179.77;1835431;75;21021;-72
2021/05/15 11:19:50;;;;;;;2.02;1.82;;;;;;;26.20;52.13;99173.52;1859215;76;21532;-72
2021/05/15 11:22:18;;;;;;;1.62;1.40;;;;;;;26.17;52.09;99174.88;1849960;75;21061;-73
2021/05/15 11:24:56;;;;;;;1.72;1.37;;;;;;;26.14;52.08;99171.94;1859296;77;21595;-72
2021/05/15 11:27:23;;;;;;;1.70;1.60;;;;;;;26.13;52.09;99162.94;1859098;77;21036;-72
2021/05/15 11:30:13;;;;;;;1.77;1.62;;;;;;;26.13;52.10;99166.22;1859114;76;21041;-72
2021/05/15 11:32:39;;;;;;;2.00;1.80;;;;;;;26.13;52.15;99168.38;1837645;76;21037;-72
2021/05/15 11:35:07;;;;;;;1.87;1.77;;;;;;;26.15;52.35;99168.10;1826192;77;21001;-73
2021/05/15 11:37:34;;;;;;;2.08;1.87;;;;;;;26.18;52.50;99159.38;1834103;77;21048;-72
2021/05/15 11:40:00;;;;;;;1.77;1.67;;;;;;;26.24;52.69;99162.31;1845166;75;21013;-71